createdAt,value
2023-01-20T00:00:11.565Z,2.97
2023-01-20T00:02:38.035Z,3.00
2023-01-20T00:05:04.853Z,2.63
2023-01-20T00:07:31.359Z,2.30
2023-01-20T00:09:57.796Z,2.57
2023-01-20T00:12:24.186Z,2.50
2023-01-20T00:14:50.903Z,2.33
2023-01-20T00:17:17.353Z,2.33
2023-01-20T00:19:43.701Z,2.23
2023-01-20T00:22:10.083Z,2.60
2023-01-20T00:24:36.486Z,2.20
2023-01-20T00:27:02.920Z,2.30
2023-01-20T00:29:29.383Z,2.53
2023-01-20T00:31:55.793Z,2.47
2023-01-20T00:34:22.225Z,2.40
2023-01-20T00:36:48.901Z,2.33
2023-01-20T00:39:15.292Z,4.23
2023-01-20T00:41:41.669Z,2.30
2023-01-20T00:44:08.159Z,3.40
2023-01-20T00:46:34.621Z,3.43
2023-01-20T00:49:01.065Z,2.57
2023-01-20T00:51:27.540Z,3.03
2023-01-20T00:53:53.981Z,2.73
2023-01-20T00:56:20.361Z,3.20
2023-01-20T00:58:46.831Z,3.07
2023-01-20T01:01:16.424Z,3.80
2023-01-20T01:03:43.987Z,3.03
2023-01-20T01:06:12.220Z,3.47
2023-01-20T01:08:38.638Z,3.57
2023-01-20T01:11:05.556Z,3.53
2023-01-20T01:13:32.596Z,3.23
2023-01-20T01:15:59.364Z,3.70
2023-01-20T01:18:25.941Z,4.50
2023-01-20T01:20:52.419Z,3.93
2023-01-20T01:23:18.890Z,3.77
2023-01-20T01:25:45.274Z,4.63
2023-01-20T01:28:11.862Z,4.83
2023-01-20T01:30:38.398Z,4.73
2023-01-20T01:33:04.809Z,5.37
2023-01-20T01:35:31.343Z,5.87
2023-01-20T01:37:57.946Z,5.13
2023-01-20T01:40:24.397Z,5.77
2023-01-20T01:42:50.767Z,6.53
2023-01-20T01:45:18.458Z,7.57
2023-01-20T01:47:48.196Z,7.73
2023-01-20T01:50:39.961Z,6.97
2023-01-20T01:53:07.400Z,7.90
2023-01-20T01:55:37.193Z,9.17
2023-01-20T01:58:05.246Z,8.50
2023-01-20T02:00:31.678Z,10.23
2023-01-20T02:02:58.492Z,9.93
2023-01-20T02:05:26.549Z,9.73
2023-01-20T02:07:53.405Z,10.77
2023-01-20T02:10:20.128Z,11.93
2023-01-20T02:12:49.560Z,10.00
2023-01-20T02:15:16.834Z,10.83
2023-01-20T02:17:53.127Z,11.47
2023-01-20T02:20:22.337Z,11.03
2023-01-20T02:23:21.411Z,12.00
2023-01-20T02:25:53.530Z,11.47
2023-01-20T02:28:22.948Z,11.20
2023-01-20T02:30:58.629Z,11.13
2023-01-20T02:33:30.130Z,11.57
2023-01-20T02:36:15.220Z,13.37
2023-01-20T02:38:50.737Z,13.37
2023-01-20T02:41:17.813Z,13.40
2023-01-20T02:43:50.984Z,13.07
2023-01-20T02:46:17.329Z,14.63
2023-01-20T02:48:46.414Z,14.53
2023-01-20T02:51:12.825Z,14.57
2023-01-20T02:53:46.736Z,15.97
2023-01-20T02:56:13.533Z,15.40
2023-01-20T02:58:43.500Z,15.70
2023-01-20T03:01:12.855Z,15.53
2023-01-20T03:03:42.266Z,16.40
2023-01-20T03:06:13.444Z,15.77
2023-01-20T03:08:44.464Z,17.07
2023-01-20T03:11:11.281Z,16.27
2023-01-20T03:13:43.733Z,16.40
2023-01-20T03:16:12.205Z,15.30
2023-01-20T03:18:39.120Z,18.07
2023-01-20T03:21:07.501Z,18.27
2023-01-20T03:23:35.132Z,17.47
2023-01-20T03:26:04.411Z,18.67
2023-01-20T03:28:30.909Z,17.77
2023-01-20T03:30:57.719Z,18.87
2023-01-20T03:33:24.735Z,18.70
2023-01-20T03:35:51.672Z,19.90
2023-01-20T03:38:18.110Z,20.03
2023-01-20T03:41:12.795Z,20.27
2023-01-20T03:43:44.482Z,21.80
2023-01-20T03:46:16.114Z,19.57
2023-01-20T03:48:46.561Z,16.57
2023-01-20T03:51:18.332Z,20.97
2023-01-20T03:53:49.036Z,19.87
2023-01-20T03:56:15.460Z,19.97
2023-01-20T03:58:44.059Z,18.43
2023-01-20T04:01:17.970Z,20.43
2023-01-20T04:03:46.314Z,21.63
2023-01-20T04:06:13.749Z,20.37
2023-01-20T04:08:44.413Z,23.10
2023-01-20T04:11:10.791Z,20.00
2023-01-20T04:13:37.448Z,19.00
2023-01-20T04:16:09.083Z,21.87
2023-01-20T04:18:40.323Z,22.40
2023-01-20T04:21:06.802Z,21.23
2023-01-20T04:23:35.938Z,21.70
2023-01-20T04:26:02.352Z,21.93
2023-01-20T04:28:28.794Z,21.90
2023-01-20T04:30:55.366Z,22.30
2023-01-20T04:33:21.875Z,21.20
2023-01-20T04:35:48.296Z,38.63
2023-01-20T04:38:14.649Z,22.23
2023-01-20T04:40:41.249Z,22.33
2023-01-20T04:43:07.704Z,22.17
2023-01-20T04:45:34.114Z,22.40
2023-01-20T04:48:00.502Z,21.23
2023-01-20T04:50:26.993Z,19.47
2023-01-20T04:52:56.360Z,20.77
2023-01-20T04:55:22.755Z,21.23
2023-01-20T04:57:49.160Z,20.53
2023-01-20T05:00:20.035Z,18.30
2023-01-20T05:02:47.148Z,20.17
2023-01-20T05:05:14.368Z,20.93
2023-01-20T05:07:40.884Z,19.73
2023-01-20T05:10:07.673Z,20.70
2023-01-20T05:12:34.080Z,18.70
2023-01-20T05:15:00.418Z,19.50
2023-01-20T05:17:26.812Z,19.93
2023-01-20T05:19:53.167Z,14.80
2023-01-20T05:22:19.519Z,18.40
2023-01-20T05:24:45.889Z,17.63
2023-01-20T05:27:12.285Z,19.40
2023-01-20T05:29:38.634Z,17.30
2023-01-20T05:32:05.079Z,17.93
2023-01-20T05:34:31.508Z,18.87
2023-01-20T05:36:57.899Z,19.70
2023-01-20T05:39:24.297Z,17.67
2023-01-20T05:41:50.851Z,17.37
2023-01-20T05:44:17.271Z,17.73
2023-01-20T05:46:43.795Z,17.80
2023-01-20T05:49:11.218Z,17.73
2023-01-20T05:51:37.731Z,16.97
2023-01-20T05:54:04.170Z,16.93
2023-01-20T05:56:30.536Z,16.93
2023-01-20T05:58:57.052Z,17.93
2023-01-20T06:01:23.605Z,15.97
2023-01-20T06:03:50.092Z,16.33
2023-01-20T06:06:18.653Z,15.50
2023-01-20T06:08:45.371Z,16.57
2023-01-20T06:11:12.183Z,17.87
2023-01-20T06:13:39.723Z,19.07
2023-01-20T06:16:07.477Z,16.60
2023-01-20T06:18:34.022Z,17.00
2023-01-20T06:21:00.430Z,15.93
2023-01-20T06:23:27.241Z,17.03
2023-01-20T06:25:59.530Z,16.90
2023-01-20T06:28:25.971Z,17.17
2023-01-20T06:30:58.576Z,16.17
2023-01-20T06:33:24.988Z,15.70
2023-01-20T06:35:53.445Z,16.77
2023-01-20T06:38:19.831Z,16.43
2023-01-20T06:40:46.184Z,17.37
2023-01-20T06:43:12.536Z,16.97
2023-01-20T06:45:38.868Z,16.87
2023-01-20T06:48:05.299Z,17.33
2023-01-20T06:50:31.776Z,18.47
2023-01-20T06:52:58.527Z,17.47
2023-01-20T06:55:24.919Z,17.27
2023-01-20T06:57:51.675Z,16.47
2023-01-20T07:00:18.647Z,16.33
2023-01-20T07:02:45.041Z,17.30
2023-01-20T07:05:11.631Z,17.73
2023-01-20T07:07:38.041Z,18.00
2023-01-20T07:10:04.715Z,17.73
2023-01-20T07:12:31.124Z,16.10
2023-01-20T07:14:57.554Z,17.07
2023-01-20T07:17:23.937Z,15.97
2023-01-20T07:19:50.333Z,16.93
2023-01-20T07:22:16.729Z,17.23
2023-01-20T07:24:43.101Z,15.97
2023-01-20T07:27:09.531Z,16.13
2023-01-20T07:29:36.031Z,16.43
2023-01-20T07:32:02.411Z,15.03
2023-01-20T07:34:28.735Z,14.27
2023-01-20T07:36:55.080Z,15.20
2023-01-20T07:39:21.497Z,15.20
2023-01-20T07:41:50.653Z,16.40
2023-01-20T07:44:17.213Z,15.53
2023-01-20T07:46:43.652Z,15.23
2023-01-20T07:49:12.344Z,17.47
2023-01-20T07:51:39.958Z,16.80
2023-01-20T07:54:06.509Z,18.10
2023-01-20T07:56:32.936Z,18.17
2023-01-20T07:58:59.392Z,16.57
2023-01-20T08:01:27.128Z,15.97
2023-01-20T08:03:53.865Z,15.47
2023-01-20T08:06:21.665Z,15.70
2023-01-20T08:08:48.302Z,15.30
2023-01-20T08:11:15.789Z,15.20
2023-01-20T08:13:43.487Z,15.00
2023-01-20T08:16:11.893Z,14.80
2023-01-20T08:18:38.466Z,15.43
2023-01-20T08:21:06.872Z,15.27
2023-01-20T08:23:33.635Z,19.70
2023-01-20T08:26:02.108Z,16.53
2023-01-20T08:28:29.283Z,14.97
2023-01-20T08:30:56.146Z,16.57
2023-01-20T08:33:22.692Z,13.97
2023-01-20T08:35:49.162Z,14.23
2023-01-20T08:38:15.509Z,13.30
2023-01-20T08:40:42.500Z,13.40
2023-01-20T08:43:08.830Z,13.93
2023-01-20T08:45:35.249Z,13.90
2023-01-20T08:48:01.661Z,12.37
2023-01-20T08:50:28.136Z,12.53
2023-01-20T08:52:54.559Z,14.13
2023-01-20T08:55:21.062Z,12.90
2023-01-20T08:57:47.713Z,13.63
2023-01-20T09:00:17.423Z,13.17
2023-01-20T09:02:43.829Z,12.80
2023-01-20T09:05:11.798Z,13.13
2023-01-20T09:07:38.239Z,13.23
2023-01-20T09:10:04.957Z,13.40
2023-01-20T09:12:31.423Z,12.13
2023-01-20T09:14:58.883Z,12.20
2023-01-20T09:17:25.292Z,13.20
2023-01-20T09:19:51.920Z,14.13
2023-01-20T09:22:18.592Z,13.17
2023-01-20T09:24:44.922Z,12.27
2023-01-20T09:27:11.327Z,12.37
2023-01-20T09:29:37.710Z,12.97
2023-01-20T09:32:04.211Z,12.43
2023-01-20T09:34:30.907Z,13.53
2023-01-20T09:37:00.574Z,14.00
2023-01-20T09:39:45.421Z,15.37
2023-01-20T09:42:44.073Z,15.00
2023-01-20T09:45:22.916Z,14.60
2023-01-20T09:47:49.544Z,13.97
2023-01-20T09:51:01.113Z,15.13
2023-01-20T09:53:27.694Z,13.87
2023-01-20T09:55:56.544Z,14.17
2023-01-20T09:58:34.935Z,14.00
2023-01-20T10:01:20.013Z,15.60
2023-01-20T10:03:56.180Z,14.17
2023-01-20T10:06:26.738Z,14.30
2023-01-20T10:09:06.256Z,15.90
2023-01-20T10:11:38.481Z,15.57
2023-01-20T10:14:08.016Z,18.40
2023-01-20T10:16:42.360Z,17.27
2023-01-20T10:19:12.793Z,15.73
2023-01-20T10:21:44.356Z,16.50
2023-01-20T10:24:13.793Z,14.60
2023-01-20T10:26:52.134Z,14.83
2023-01-20T10:29:32.304Z,14.27
2023-01-20T10:32:03.094Z,12.53
2023-01-20T10:34:34.466Z,12.07
2023-01-20T10:37:04.705Z,12.43
2023-01-20T10:39:49.914Z,11.93
2023-01-20T10:42:17.267Z,16.60
2023-01-20T10:44:44.004Z,17.87
2023-01-20T10:47:29.228Z,13.33
2023-01-20T10:50:10.727Z,13.77
2023-01-20T10:52:52.485Z,12.93
2023-01-20T10:55:30.803Z,13.63
2023-01-20T10:58:05.275Z,13.43
2023-01-20T11:00:31.900Z,13.07
2023-01-20T11:02:59.750Z,12.63
2023-01-20T11:05:28.101Z,12.57
2023-01-20T11:07:56.357Z,12.73
2023-01-20T11:10:27.225Z,12.83
2023-01-20T11:12:55.430Z,12.93
2023-01-20T11:15:28.425Z,13.33
2023-01-20T11:18:13.460Z,12.03
2023-01-20T11:20:45.907Z,12.60
2023-01-20T11:23:41.715Z,12.43
2023-01-20T11:26:16.137Z,12.60
2023-01-20T11:28:47.745Z,13.53
2023-01-20T11:31:15.070Z,12.87
2023-01-20T11:33:54.083Z,27.37
2023-01-20T11:36:21.334Z,11.97
2023-01-20T11:38:49.066Z,12.43
2023-01-20T11:41:20.292Z,11.10
2023-01-20T11:43:47.163Z,12.87
2023-01-20T11:46:22.887Z,11.60
2023-01-20T11:48:50.037Z,11.63
2023-01-20T11:51:25.430Z,11.93
2023-01-20T11:54:06.146Z,12.93
2023-01-20T11:56:35.026Z,11.30
2023-01-20T11:59:03.466Z,12.50
2023-01-20T12:01:49.308Z,10.87
2023-01-20T12:04:18.894Z,12.47
2023-01-20T12:06:54.506Z,10.90
2023-01-20T12:09:23.200Z,11.57
2023-01-20T12:11:55.690Z,10.83
2023-01-20T12:14:28.826Z,10.60
2023-01-20T12:17:04.525Z,10.90
2023-01-20T12:19:37.289Z,11.00
2023-01-20T12:22:09.758Z,11.20
2023-01-20T12:24:58.939Z,10.73
2023-01-20T12:27:27.058Z,10.10
2023-01-20T12:29:55.916Z,11.30
2023-01-20T12:32:22.344Z,11.10
2023-01-20T12:34:48.772Z,11.73
2023-01-20T12:37:16.786Z,10.00
2023-01-20T12:40:01.855Z,12.17
2023-01-20T12:42:37.257Z,10.63
2023-01-20T12:45:22.338Z,10.93
2023-01-20T12:48:07.703Z,11.47
2023-01-20T12:50:40.344Z,11.27
2023-01-20T12:53:31.012Z,11.37
2023-01-20T12:56:07.088Z,11.03
2023-01-20T12:58:40.018Z,10.80
2023-01-20T13:01:21.568Z,11.30
2023-01-20T13:04:06.662Z,10.47
2023-01-20T13:06:36.164Z,10.73
2023-01-20T13:09:08.800Z,12.17
2023-01-20T13:11:54.149Z,11.00
2023-01-20T13:14:23.247Z,10.37
2023-01-20T13:17:06.727Z,11.63
2023-01-20T13:19:41.359Z,10.13
2023-01-20T13:22:10.004Z,10.63
2023-01-20T13:24:36.899Z,10.73
2023-01-20T13:27:03.780Z,10.63
2023-01-20T13:29:36.316Z,12.50
2023-01-20T13:32:03.276Z,11.23
2023-01-20T13:34:33.327Z,11.27
2023-01-20T13:37:02.549Z,11.83
2023-01-20T13:39:40.621Z,11.20
2023-01-20T13:42:25.611Z,11.57
2023-01-20T13:45:10.874Z,11.27
2023-01-20T13:47:59.124Z,10.93
2023-01-20T13:50:31.711Z,11.70
2023-01-20T13:52:58.156Z,11.50
2023-01-20T13:55:29.155Z,10.57
2023-01-20T13:57:55.631Z,11.37
2023-01-20T14:00:22.315Z,12.70
2023-01-20T14:02:49.346Z,11.27
2023-01-20T14:05:26.466Z,11.53
2023-01-20T14:07:53.051Z,11.57
2023-01-20T14:10:20.165Z,11.77
2023-01-20T14:12:46.731Z,11.43
2023-01-20T14:15:25.584Z,10.83
2023-01-20T14:17:56.308Z,11.00
2023-01-20T14:20:23.815Z,11.27
2023-01-20T14:22:50.537Z,10.33
2023-01-20T14:25:20.993Z,11.70
2023-01-20T14:27:47.450Z,11.33
2023-01-20T14:30:27.132Z,11.23
2023-01-20T14:32:53.947Z,10.90
2023-01-20T14:35:34.171Z,12.23
2023-01-20T14:38:01.155Z,11.67
2023-01-20T14:40:27.717Z,10.63
2023-01-20T14:42:59.077Z,10.50
2023-01-20T14:45:26.789Z,11.13
2023-01-20T14:47:53.210Z,11.80
2023-01-20T14:50:20.434Z,12.37
2023-01-20T14:52:47.013Z,11.83
2023-01-20T14:55:32.132Z,11.13
2023-01-20T14:57:59.156Z,11.27
2023-01-20T15:00:27.238Z,11.73
2023-01-20T15:03:10.903Z,27.23
2023-01-20T15:05:40.428Z,11.50
2023-01-20T15:08:39.205Z,11.50
2023-01-20T15:11:14.618Z,10.87
2023-01-20T15:13:41.864Z,10.13
2023-01-20T15:16:21.481Z,12.87
2023-01-20T15:19:08.211Z,10.93
2023-01-20T15:21:35.397Z,11.17
2023-01-20T15:24:17.885Z,10.63
2023-01-20T15:26:45.094Z,12.10
2023-01-20T15:29:21.813Z,11.33
2023-01-20T15:31:48.454Z,9.93
2023-01-20T15:34:14.919Z,10.30
2023-01-20T15:36:41.414Z,10.40
2023-01-20T15:39:14.152Z,10.70
2023-01-20T15:41:40.532Z,11.73
2023-01-20T15:46:36.652Z,10.57
2023-01-20T15:49:03.289Z,10.70
2023-01-20T15:51:29.698Z,10.70
2023-01-20T15:53:56.278Z,11.60
2023-01-20T15:56:24.067Z,11.63
2023-01-20T15:58:50.858Z,23.40
2023-01-20T16:01:18.743Z,15.80
2023-01-20T16:03:45.424Z,11.80
2023-01-20T16:06:13.486Z,12.40
2023-01-20T16:08:40.230Z,11.83
2023-01-20T16:11:06.800Z,12.60
2023-01-20T16:13:34.135Z,12.33
2023-01-20T16:16:01.237Z,11.43
2023-01-20T16:18:27.705Z,12.83
2023-01-20T16:20:54.184Z,12.83
2023-01-20T16:23:20.598Z,12.77
2023-01-20T16:25:47.619Z,13.53
2023-01-20T16:28:14.904Z,12.73
2023-01-20T16:30:41.833Z,13.67
2023-01-20T16:33:15.282Z,14.60
2023-01-20T16:35:42.196Z,13.90
2023-01-20T16:38:11.540Z,12.77
2023-01-20T16:40:44.254Z,13.27
2023-01-20T16:43:12.648Z,15.10
2023-01-20T16:45:39.231Z,13.93
2023-01-20T16:48:07.160Z,14.43
2023-01-20T16:50:33.592Z,15.77
2023-01-20T16:53:00.040Z,13.53
2023-01-20T16:55:26.702Z,15.07
2023-01-20T16:57:53.362Z,13.80
2023-01-20T17:00:20.588Z,14.93
2023-01-20T17:02:51.481Z,15.33
2023-01-20T17:05:22.818Z,14.50
2023-01-20T17:07:50.081Z,15.57
2023-01-20T17:10:17.562Z,15.17
2023-01-20T17:12:44.449Z,14.57
2023-01-20T17:15:11.086Z,15.80
2023-01-20T17:17:40.411Z,15.97
2023-01-20T17:20:13.325Z,17.00
2023-01-20T17:22:40.048Z,14.97
2023-01-20T17:25:09.324Z,17.23
2023-01-20T17:27:36.366Z,16.60
2023-01-20T17:30:03.936Z,16.70
2023-01-20T17:32:30.377Z,17.43
2023-01-20T17:34:56.802Z,16.47
2023-01-20T17:37:23.148Z,17.83
2023-01-20T17:39:49.568Z,18.23
2023-01-20T17:42:17.682Z,16.97
2023-01-20T17:44:44.246Z,18.73
2023-01-20T17:47:11.243Z,17.73
2023-01-20T17:49:37.665Z,18.80
2023-01-20T17:52:04.270Z,18.80
2023-01-20T17:54:30.622Z,19.23
2023-01-20T17:56:57.125Z,18.27
2023-01-20T17:59:24.264Z,19.93
2023-01-20T18:01:52.482Z,20.13
2023-01-20T18:04:19.139Z,19.10
2023-01-20T18:06:45.712Z,19.70
2023-01-20T18:09:13.619Z,20.10
2023-01-20T18:11:40.335Z,21.13
2023-01-20T18:14:07.331Z,20.87
2023-01-20T18:16:34.999Z,19.13
2023-01-20T18:19:01.427Z,21.13
2023-01-20T18:21:29.829Z,20.63
2023-01-20T18:23:57.112Z,21.37
2023-01-20T18:26:24.969Z,22.83
2023-01-20T18:28:55.134Z,21.20
2023-01-20T18:31:22.451Z,21.43
2023-01-20T18:33:58.952Z,20.80
2023-01-20T18:36:27.090Z,21.77
2023-01-20T18:38:54.685Z,22.17
2023-01-20T18:41:21.635Z,20.90
2023-01-20T18:43:48.519Z,23.17
2023-01-20T18:46:15.458Z,22.87
2023-01-20T18:48:44.879Z,22.60
2023-01-20T18:51:11.696Z,20.80
2023-01-20T18:53:38.164Z,21.73
2023-01-20T18:56:08.977Z,22.07
2023-01-20T18:58:35.931Z,23.23
2023-01-20T19:01:02.330Z,23.13
2023-01-20T19:03:28.896Z,23.50
2023-01-20T19:05:55.332Z,22.20
2023-01-20T19:08:21.720Z,22.40
2023-01-20T19:10:48.202Z,22.93
2023-01-20T19:13:14.572Z,21.50
2023-01-20T19:15:41.040Z,23.07
2023-01-20T19:18:07.537Z,19.63
2023-01-20T19:20:33.986Z,20.80
2023-01-20T19:23:00.418Z,21.67
2023-01-20T19:25:31.573Z,21.43
2023-01-20T19:27:57.957Z,21.40
2023-01-20T19:30:24.494Z,19.97
2023-01-20T19:32:50.931Z,20.80
2023-01-20T19:35:17.399Z,20.83
2023-01-20T19:37:44.001Z,22.17
2023-01-20T19:40:11.116Z,21.57
2023-01-20T19:42:37.559Z,21.13
2023-01-20T19:45:04.295Z,22.77
2023-01-20T19:47:33.561Z,38.50
2023-01-20T19:49:59.999Z,29.07
2023-01-20T19:52:28.002Z,23.13
2023-01-20T19:54:54.543Z,22.53
2023-01-20T19:57:20.965Z,21.60
2023-01-20T19:59:47.336Z,20.03
2023-01-20T20:02:13.701Z,21.97
2023-01-20T20:04:40.114Z,20.83
2023-01-20T20:07:06.558Z,21.60
2023-01-20T20:09:32.967Z,21.90
2023-01-20T20:12:05.222Z,20.87
2023-01-20T20:14:32.107Z,22.17
2023-01-20T20:16:58.643Z,20.50
2023-01-20T20:19:25.417Z,20.03
2023-01-20T20:21:52.223Z,20.90
2023-01-20T20:24:18.774Z,20.50
2023-01-20T20:26:46.341Z,20.70
2023-01-20T20:29:13.449Z,19.97
2023-01-20T20:31:40.665Z,20.63
2023-01-20T20:34:08.796Z,21.00
2023-01-20T20:36:35.357Z,22.13
2023-01-20T20:39:03.460Z,21.73
2023-01-20T20:41:31.988Z,21.27
2023-01-20T20:43:59.505Z,19.93
2023-01-20T20:46:26.514Z,20.77
2023-01-20T20:48:56.845Z,20.77
2023-01-20T20:51:24.915Z,21.03
2023-01-20T20:53:55.610Z,21.17
2023-01-20T20:56:22.349Z,21.17
2023-01-20T20:59:00.792Z,20.13
2023-01-20T21:01:28.887Z,19.40
2023-01-20T21:03:57.791Z,20.37
2023-01-20T21:06:26.357Z,20.07
2023-01-20T21:08:54.110Z,20.13
2023-01-20T21:11:20.756Z,20.23
2023-01-20T21:13:49.200Z,21.53
2023-01-20T21:16:20.519Z,28.00
2023-01-20T21:18:47.260Z,26.17
2023-01-20T21:21:14.376Z,21.23
2023-01-20T21:23:41.091Z,22.23
2023-01-20T21:26:09.425Z,22.10
2023-01-20T21:28:36.624Z,24.20
2023-01-20T21:31:07.068Z,28.67
2023-01-20T21:33:33.606Z,22.10
2023-01-20T21:36:03.243Z,18.93
2023-01-20T21:38:31.367Z,20.13
2023-01-20T21:41:01.349Z,20.43
2023-01-20T21:43:50.012Z,19.90
2023-01-20T21:46:16.746Z,19.67
2023-01-20T21:49:02.047Z,19.17
2023-01-20T21:51:47.070Z,20.37
2023-01-20T21:54:17.056Z,21.63
2023-01-20T21:56:43.540Z,19.07
2023-01-20T21:59:10.023Z,19.47
2023-01-20T22:01:36.515Z,20.50
2023-01-20T22:04:03.338Z,18.63
2023-01-20T22:06:29.804Z,20.20
2023-01-20T22:08:58.497Z,21.23
2023-01-20T22:11:25.723Z,20.57
2023-01-20T22:13:58.054Z,19.70
2023-01-20T22:16:25.591Z,20.37
2023-01-20T22:18:52.661Z,19.30
2023-01-20T22:21:19.953Z,20.13
2023-01-20T22:23:46.473Z,22.33
2023-01-20T22:26:12.825Z,20.20
2023-01-20T22:28:39.932Z,21.23
2023-01-20T22:31:14.009Z,19.93
2023-01-20T22:33:40.512Z,19.60
2023-01-20T22:36:07.126Z,19.13
2023-01-20T22:38:34.174Z,19.17
2023-01-20T22:41:07.643Z,20.50
2023-01-20T22:43:35.175Z,19.23
2023-01-20T22:46:02.528Z,19.97
2023-01-20T22:48:30.964Z,19.07
2023-01-20T22:51:02.614Z,17.63
2023-01-20T22:53:29.023Z,17.87
2023-01-20T22:56:01.354Z,19.60
2023-01-20T22:58:27.840Z,19.77
2023-01-20T23:00:54.267Z,18.47
2023-01-20T23:03:20.718Z,18.13
2023-01-20T23:05:50.832Z,19.60
2023-01-20T23:08:17.241Z,19.40
2023-01-20T23:10:46.620Z,18.50
2023-01-20T23:13:13.268Z,19.13
2023-01-20T23:15:39.649Z,17.57
2023-01-20T23:18:06.085Z,17.00
2023-01-20T23:20:32.478Z,18.07
2023-01-20T23:22:58.913Z,17.60
2023-01-20T23:25:25.339Z,16.47
2023-01-20T23:27:51.835Z,16.83
2023-01-20T23:30:18.586Z,16.43
2023-01-20T23:32:45.646Z,17.00
2023-01-20T23:35:12.037Z,15.87
2023-01-20T23:37:38.429Z,14.50
2023-01-20T23:40:05.355Z,14.97
2023-01-20T23:42:31.844Z,14.87
2023-01-20T23:44:58.259Z,15.63
2023-01-20T23:47:24.713Z,15.30
2023-01-20T23:49:51.269Z,15.20
2023-01-20T23:52:17.937Z,14.80
2023-01-20T23:54:44.316Z,15.03
2023-01-20T23:57:10.716Z,15.57
2023-01-20T23:59:38.117Z,15.60
